Time;durP1;ratioP1;P1;durP2;ratioP2;P2;SDS_P1;SDS_P2;PMS_P1;PMS_P2;Temp;Humidity;BMP_temperature;BMP_pressure;BME280_temperature;BME280_humidity;BME280_pressure;Samples;Min_cycle;Max_cycle;Signal;HPM_P1;HPM_P2
2022/03/29 00:02:18;;;;;;;1999.90;999.90;;;;;;;4.47;48.87;101098.16;4914522;28;97660;-76
2022/03/29 00:04:46;;;;;;;1999.90;999.90;;;;;;;4.45;48.63;101088.34;4900390;28;100008;-76
2022/03/29 00:07:14;;;;;;;1999.90;999.90;;;;;;;4.46;48.65;101082.28;4915527;28;97226;-76
2022/03/29 00:09:43;;;;;;;1999.90;999.90;;;;;;;4.46;48.62;101087.56;4917198;28;96921;-77
2022/03/29 00:12:11;;;;;;;1999.90;999.90;;;;;;;4.44;48.72;101086.56;4915740;28;99037;-74
2022/03/29 00:14:40;;;;;;;1999.90;999.90;;;;;;;4.38;48.66;101080.97;4917132;28;100741;-75
2022/03/29 00:17:08;;;;;;;1999.90;999.90;;;;;;;4.32;48.68;101076.31;4917434;28;97345;-77
2022/03/29 00:19:36;;;;;;;1999.90;999.90;;;;;;;4.31;48.87;101068.31;4918507;28;97841;-76
2022/03/29 00:22:04;;;;;;;1999.90;999.90;;;;;;;4.31;48.83;101074.50;4913667;28;98043;-77
2022/03/29 00:24:32;;;;;;;1999.90;999.90;;;;;;;4.33;48.71;101069.31;4914158;28;97627;-76
2022/03/29 00:27:01;;;;;;;1999.90;999.90;;;;;;;4.32;48.82;101057.88;4914524;28;97267;-77
2022/03/29 00:29:28;;;;;;;1999.90;999.90;;;;;;;4.33;48.81;101064.03;4917311;28;96883;-76
2022/03/29 00:31:56;;;;;;;1999.90;999.90;;;;;;;4.33;48.90;101064.03;4912553;28;99691;-76
2022/03/29 00:34:24;;;;;;;1999.90;999.90;;;;;;;4.31;48.79;101049.88;4906906;28;97791;-76
2022/03/29 00:36:52;;;;;;;1999.90;999.90;;;;;;;4.29;48.78;101047.19;4914367;28;97926;-78
2022/03/29 00:39:20;;;;;;;1999.90;999.90;;;;;;;4.26;48.65;101043.50;4914427;28;98092;-76
2022/03/29 00:41:47;;;;;;;1999.90;999.90;;;;;;;4.26;48.61;101032.97;4916322;28;98942;-76
2022/03/29 00:44:17;;;;;;;1999.90;999.90;;;;;;;4.28;48.81;101033.94;4915021;28;99458;-76
2022/03/29 00:46:47;;;;;;;1999.90;999.90;;;;;;;4.20;48.69;101031.84;4916117;28;97852;-76
2022/03/29 00:49:16;;;;;;;1999.90;999.90;;;;;;;4.19;49.02;101030.00;4913682;28;99596;-74
2022/03/29 00:51:44;;;;;;;1999.90;999.90;;;;;;;4.13;48.91;101029.69;4913143;28;97974;-76
2022/03/29 00:54:13;;;;;;;1999.90;999.90;;;;;;;4.09;48.79;101027.75;4913455;28;98935;-75
2022/03/29 00:56:40;;;;;;;1999.90;999.90;;;;;;;4.07;49.22;101039.94;4918702;28;99688;-76
2022/03/29 00:59:08;;;;;;;1999.90;999.90;;;;;;;4.08;49.12;101031.19;4930874;28;96971;-76
2022/03/29 01:01:37;;;;;;;1999.90;999.90;;;;;;;4.05;49.21;101031.03;4932453;28;98928;-76
2022/03/29 01:04:06;;;;;;;1999.90;999.90;;;;;;;4.03;49.19;101030.06;4930895;28;97519;-76
2022/03/29 01:06:34;;;;;;;1999.90;999.90;;;;;;;4.01;49.49;101026.44;4933222;28;97460;-76
2022/03/29 01:09:02;;;;;;;1999.90;999.90;;;;;;;4.01;49.61;101028.16;4933524;28;97432;-77
2022/03/29 01:11:29;;;;;;;1999.90;999.90;;;;;;;4.00;49.67;101021.09;4928639;28;97966;-76
2022/03/29 01:13:57;;;;;;;1999.90;999.90;;;;;;;3.99;49.56;101017.56;4945251;28;101167;-76
2022/03/29 01:19:16;;;;;;;1999.90;999.90;;;;;;;4.00;49.89;101027.28;4892566;28;98406;-75
2022/03/29 01:21:52;;;;;;;1999.90;999.90;;;;;;;4.01;49.51;101018.53;4918878;28;100601;-76
2022/03/29 01:24:20;;;;;;;1999.90;999.90;;;;;;;3.98;49.96;101013.13;4916968;28;97627;-76
2022/03/29 01:26:48;;;;;;;1999.90;999.90;;;;;;;3.87;49.78;101014.31;4906030;28;97546;-76
2022/03/29 01:29:16;;;;;;;1999.90;999.90;;;;;;;3.84;50.19;101008.88;4920029;28;98876;-76
2022/03/29 01:31:43;;;;;;;1999.90;999.90;;;;;;;3.81;50.01;101007.81;4927002;28;98972;-77
2022/03/29 01:34:12;;;;;;;1999.90;999.90;;;;;;;3.82;49.87;101005.28;4915063;28;98467;-76
2022/03/29 01:36:39;;;;;;;1999.90;999.90;;;;;;;3.75;50.35;101010.16;4925569;28;97387;-76
2022/03/29 01:39:08;;;;;;;1999.90;999.90;;;;;;;3.67;50.34;101009.75;4918664;28;97208;-75
2022/03/29 01:41:38;;;;;;;1999.90;999.90;;;;;;;3.65;50.46;100998.22;4922720;28;97196;-76
2022/03/29 01:44:07;;;;;;;1999.90;999.90;;;;;;;3.64;50.57;100988.47;4899840;28;99360;-76
2022/03/29 01:46:35;;;;;;;1999.90;999.90;;;;;;;3.65;50.65;100989.41;4916819;28;97762;-76
2022/03/29 01:49:03;;;;;;;1999.90;999.90;;;;;;;3.68;50.90;100993.13;4908261;28;96971;-76
2022/03/29 01:51:31;;;;;;;1999.90;999.90;;;;;;;3.70;50.64;100994.09;4913569;28;99597;-77
2022/03/29 01:54:00;;;;;;;1999.90;999.90;;;;;;;3.73;50.56;100993.38;4913851;28;98150;-77
2022/03/29 01:56:31;;;;;;;1999.90;999.90;;;;;;;3.71;50.51;101006.44;4915497;28;97583;-77
2022/03/29 01:58:59;;;;;;;1999.90;999.90;;;;;;;3.68;50.75;100997.47;4916543;28;97521;-76
2022/03/29 02:01:27;;;;;;;1999.90;999.90;;;;;;;3.63;50.46;100991.94;4914932;28;98711;-76
2022/03/29 02:03:55;;;;;;;1999.90;999.90;;;;;;;3.61;50.54;100993.59;4915494;28;99409;-77
2022/03/29 02:06:22;;;;;;;1999.90;999.90;;;;;;;3.56;50.68;100986.28;4916176;28;97887;-77
2022/03/29 02:08:50;;;;;;;1999.90;999.90;;;;;;;3.56;51.02;100992.44;4915490;28;99500;-77
2022/03/29 02:11:17;;;;;;;1999.90;999.90;;;;;;;3.57;50.98;100982.84;4923851;28;98972;-77
2022/03/29 02:13:50;;;;;;;1999.90;999.90;;;;;;;2.99;52.47;100986.69;4920239;28;97519;-76
2022/03/29 02:16:18;;;;;;;1999.90;999.90;;;;;;;3.24;51.63;100987.19;4915516;28;97082;-77
2022/03/29 02:18:46;;;;;;;1999.90;999.90;;;;;;;3.33;52.00;100987.69;4919084;28;97920;-76
2022/03/29 02:21:14;;;;;;;1999.90;999.90;;;;;;;3.42;51.68;100988.19;4917158;28;101263;-77
2022/03/29 02:23:42;;;;;;;1999.90;999.90;;;;;;;3.47;51.81;100998.94;4916826;28;98808;-76
2022/03/29 02:26:10;;;;;;;1999.90;999.90;;;;;;;2.90;53.00;101000.25;4916989;28;97652;-76
2022/03/29 02:28:38;;;;;;;1999.90;999.90;;;;;;;3.21;51.92;101000.19;4918113;28;96925;-76
2022/03/29 02:31:07;;;;;;;1999.90;999.90;;;;;;;3.35;51.49;100990.41;4917076;28;99320;-77
2022/03/29 02:33:38;;;;;;;1999.90;999.90;;;;;;;2.85;52.75;100990.31;4917566;28;100594;-77
2022/03/29 02:36:06;;;;;;;1999.90;999.90;;;;;;;2.64;53.23;100991.72;4915838;28;97817;-75
2022/03/29 02:38:33;;;;;;;1999.90;999.90;;;;;;;2.99;52.75;100990.25;4918659;28;99224;-76
2022/03/29 02:41:01;;;;;;;1999.90;999.90;;;;;;;3.14;52.10;101000.69;4913964;28;100476;-76
2022/03/29 02:43:29;;;;;;;1999.90;999.90;;;;;;;3.16;51.37;100996.41;4919332;28;98805;-75
2022/03/29 02:45:57;;;;;;;1999.90;999.90;;;;;;;2.57;52.82;100984.31;4917732;28;97926;-76
2022/03/29 02:48:26;;;;;;;1999.90;999.90;;;;;;;2.36;53.45;100984.03;4920058;28;97029;-76
2022/03/29 02:50:55;;;;;;;1999.90;999.90;;;;;;;2.26;54.20;100984.31;4916230;28;99182;-74
2022/03/29 02:53:22;;;;;;;1999.90;999.90;;;;;;;2.17;54.00;100992.56;4919298;28;97900;-75
2022/03/29 02:55:50;;;;;;;1999.90;999.90;;;;;;;2.54;53.00;100989.41;4917290;28;98038;-75
2022/03/29 02:58:18;;;;;;;1999.90;999.90;;;;;;;2.72;52.45;100993.97;4916646;28;98491;-76
2022/03/29 03:00:45;;;;;;;1999.90;999.90;;;;;;;2.34;53.73;100980.41;4916634;28;101110;-76
2022/03/29 03:03:13;;;;;;;1999.90;999.90;;;;;;;2.70;52.88;100984.19;4916138;28;99666;-76
2022/03/29 03:05:43;;;;;;;1999.90;999.90;;;;;;;2.85;52.61;100979.78;4915456;28;97414;-76
2022/03/29 03:08:10;;;;;;;1999.90;999.90;;;;;;;2.95;52.48;100977.75;4900255;28;97189;-75
2022/03/29 03:10:38;;;;;;;1999.90;999.90;;;;;;;3.03;52.31;100978.16;4916637;28;98474;-75
2022/03/29 03:13:06;;;;;;;1999.90;999.90;;;;;;;3.07;52.34;100974.88;4916983;28;99369;-74
2022/03/29 03:15:33;;;;;;;1999.90;999.90;;;;;;;3.15;52.42;100973.56;4924682;28;97684;-76
2022/03/29 03:18:02;;;;;;;1999.90;999.90;;;;;;;3.18;52.39;100971.13;4899060;28;96978;-76
2022/03/29 03:20:30;;;;;;;1999.90;999.90;;;;;;;3.21;52.07;100964.28;4914595;28;99635;-77
2022/03/29 03:22:59;;;;;;;1999.90;999.90;;;;;;;3.34;51.50;100965.84;4914746;28;97740;-76
2022/03/29 03:25:27;;;;;;;1999.90;999.90;;;;;;;3.36;51.20;100963.28;4916615;28;97014;-74
2022/03/29 03:27:55;;;;;;;1999.90;999.90;;;;;;;3.40;51.52;100955.66;4917535;28;97944;-75
2022/03/29 03:30:22;;;;;;;1999.90;999.90;;;;;;;3.40;51.63;100953.03;4915800;28;98758;-76
2022/03/29 03:32:53;;;;;;;1999.90;999.90;;;;;;;3.40;51.64;100950.38;4913475;28;99630;-75
2022/03/29 03:35:21;;;;;;;1999.90;999.90;;;;;;;3.43;51.92;100949.63;4918222;28;97834;-75
2022/03/29 03:37:49;;;;;;;1999.90;999.90;;;;;;;3.43;51.27;100952.25;4918237;28;97850;-75
2022/03/29 03:40:18;;;;;;;1999.90;999.90;;;;;;;3.44;51.58;100957.59;4917413;28;101578;-76
2022/03/29 03:42:46;;;;;;;1999.90;999.90;;;;;;;3.47;51.25;100962.13;4905281;28;98959;-76
2022/03/29 03:45:14;;;;;;;1999.90;999.90;;;;;;;3.43;51.59;100955.78;4915106;28;97898;-75
2022/03/29 03:47:41;;;;;;;1999.90;999.90;;;;;;;3.41;51.73;100949.56;4918897;28;97245;-77
2022/03/29 03:50:09;;;;;;;1999.90;999.90;;;;;;;3.44;51.11;100952.34;4913177;28;98237;-76
2022/03/29 03:52:37;;;;;;;1999.90;999.90;;;;;;;3.48;51.29;100945.53;4917124;28;99022;-76
2022/03/29 03:55:07;;;;;;;1999.90;999.90;;;;;;;3.50;50.70;100947.41;4917025;28;97992;-76
2022/03/29 03:57:36;;;;;;;1999.90;999.90;;;;;;;3.49;51.09;100958.75;4913940;28;98422;-77
2022/03/29 04:00:06;;;;;;;1999.90;999.90;;;;;;;3.46;51.33;100955.06;4917318;28;98108;-77
2022/03/29 04:02:40;;;;;;;1999.90;999.90;;;;;;;3.47;50.98;100947.25;4906652;28;99901;-76
2022/03/29 04:05:12;;;;;;;1999.90;999.90;;;;;;;3.45;50.89;100947.97;4909574;28;97899;-77
2022/03/29 04:07:40;;;;;;;1999.90;999.90;;;;;;;3.48;50.94;100943.78;4913534;28;98847;-76
2022/03/29 04:10:09;;;;;;;1999.90;999.90;;;;;;;3.48;51.00;100949.03;4914328;28;98357;-76
2022/03/29 04:12:38;;;;;;;1999.90;999.90;;;;;;;3.44;50.86;100941.81;4914452;28;97807;-77
2022/03/29 04:15:08;;;;;;;1999.90;999.90;;;;;;;3.45;51.02;100941.00;4915017;28;99348;-74
2022/03/29 04:17:36;;;;;;;1999.90;999.90;;;;;;;3.48;50.82;100943.78;4917191;28;97308;-76
2022/03/29 04:20:04;;;;;;;1999.90;999.90;;;;;;;3.51;50.77;100946.59;4916013;28;99547;-77
2022/03/29 04:22:32;;;;;;;1999.90;999.90;;;;;;;3.53;51.00;100939.66;4916763;28;98806;-76
2022/03/29 04:24:59;;;;;;;1999.90;999.90;;;;;;;3.55;50.76;100938.00;4913201;28;97952;-76
2022/03/29 04:27:27;;;;;;;1999.90;999.90;;;;;;;3.58;50.44;100935.56;4915046;28;97087;-76
2022/03/29 04:29:56;;;;;;;1999.90;999.90;;;;;;;3.56;50.46;100939.84;4915631;28;98065;-76
2022/03/29 04:32:24;;;;;;;1999.90;999.90;;;;;;;3.51;50.75;100938.69;4912938;28;98442;-76
2022/03/29 04:34:52;;;;;;;1999.90;999.90;;;;;;;3.47;50.76;100934.09;4914373;28;97274;-75
2022/03/29 04:37:20;;;;;;;1999.90;999.90;;;;;;;3.48;50.94;100932.38;4916375;28;98025;-75
2022/03/29 04:39:49;;;;;;;1999.90;999.90;;;;;;;3.52;50.71;100923.78;4910477;28;99143;-76
2022/03/29 04:42:18;;;;;;;1999.90;999.90;;;;;;;3.55;50.54;100930.13;4909950;28;100032;-76
2022/03/29 04:44:46;;;;;;;1999.90;999.90;;;;;;;3.56;50.74;100926.69;4909153;28;97221;-75
2022/03/29 04:47:15;;;;;;;1999.90;999.90;;;;;;;3.56;50.63;100923.13;4913230;28;100023;-76
2022/03/29 04:49:42;;;;;;;1999.90;999.90;;;;;;;3.57;50.86;100917.06;4905388;28;99599;-76
2022/03/29 04:52:10;;;;;;;1999.90;999.90;;;;;;;3.61;50.22;100925.19;4915751;28;98103;-76
2022/03/29 04:54:38;;;;;;;1999.90;999.90;;;;;;;3.57;50.57;100906.53;4917124;28;96751;-76
2022/03/29 04:57:06;;;;;;;1999.90;999.90;;;;;;;3.57;50.48;100906.53;4914210;28;97405;-76
2022/03/29 04:59:33;;;;;;;1999.90;999.90;;;;;;;3.57;50.36;100906.53;4917528;28;97851;-77
2022/03/29 05:02:01;;;;;;;1999.90;999.90;;;;;;;3.58;50.26;100909.25;4915176;28;97747;-76
2022/03/29 05:04:30;;;;;;;1999.90;999.90;;;;;;;3.59;50.00;100910.13;4918742;28;97784;-76
2022/03/29 05:06:58;;;;;;;1999.90;999.90;;;;;;;3.59;50.47;100907.50;4934131;28;97744;-75
2022/03/29 05:09:26;;;;;;;1999.90;999.90;;;;;;;3.57;50.13;100911.81;4914167;28;101133;-75
2022/03/29 05:11:56;;;;;;;1999.90;999.90;;;;;;;3.56;50.27;100908.25;4916298;28;98204;-74
2022/03/29 05:14:24;;;;;;;1999.90;999.90;;;;;;;3.53;50.43;100910.72;4915795;28;96913;-75
2022/03/29 05:16:52;;;;;;;1999.90;999.90;;;;;;;3.50;49.89;100917.53;4915741;28;97323;-77
2022/03/29 05:19:20;;;;;;;1999.90;999.90;;;;;;;3.49;50.33;100911.41;4914640;28;97862;-70
2022/03/29 05:21:49;;;;;;;1999.90;999.90;;;;;;;3.53;50.55;100909.84;4916293;28;97517;-77
2022/03/29 05:24:16;;;;;;;1999.90;999.90;;;;;;;3.56;50.41;100910.88;4917186;28;97306;-77
2022/03/29 05:26:44;;;;;;;1999.90;999.90;;;;;;;3.59;50.50;100910.13;4914774;28;97120;-77
2022/03/29 05:29:12;;;;;;;1999.90;999.90;;;;;;;3.60;50.15;100902.34;4916200;28;97361;-77
2022/03/29 05:31:40;;;;;;;1999.90;999.90;;;;;;;3.64;50.26;100893.75;4915448;28;97941;-78
2022/03/29 05:34:14;;;;;;;1999.90;999.90;;;;;;;3.71;50.29;100895.94;4917043;28;97123;-76
2022/03/29 05:36:45;;;;;;;1999.90;999.90;;;;;;;3.78;49.89;100894.50;4919807;28;96808;-76
2022/03/29 05:39:14;;;;;;;1999.90;999.90;;;;;;;3.81;50.38;100892.00;4918734;28;98769;-76
2022/03/29 05:41:42;;;;;;;1999.90;999.90;;;;;;;3.82;49.86;100892.09;4920611;28;98268;-77
2022/03/29 05:44:10;;;;;;;1999.90;999.90;;;;;;;3.80;49.67;100893.75;4912729;28;97794;-76
2022/03/29 05:49:24;;;;;;;1999.90;999.90;;;;;;;3.86;50.01;100888.78;4924757;28;99961;-76
2022/03/29 05:51:52;;;;;;;1999.90;999.90;;;;;;;3.88;49.67;100888.84;4930570;28;98178;-77
2022/03/29 05:54:21;;;;;;;1999.90;999.90;;;;;;;3.87;49.87;100903.75;4937071;28;97755;-77
2022/03/29 05:56:49;;;;;;;1999.90;999.90;;;;;;;3.87;49.93;100902.84;4938857;28;96885;-78
2022/03/29 05:59:17;;;;;;;1999.90;999.90;;;;;;;3.90;49.54;100903.91;4946690;28;100994;-77
2022/03/29 06:01:45;;;;;;;1999.90;999.90;;;;;;;3.91;49.84;100900.47;4945153;28;98776;-78
2022/03/29 06:04:12;;;;;;;1999.90;999.90;;;;;;;3.94;49.23;100904.94;4941690;28;97006;-76
2022/03/29 06:06:42;;;;;;;1999.90;999.90;;;;;;;3.91;48.70;100903.09;4939732;28;100875;-74
2022/03/29 06:09:09;;;;;;;1999.90;999.90;;;;;;;3.85;48.74;100896.59;4925950;28;98030;-74
2022/03/29 06:11:38;;;;;;;1999.90;999.90;;;;;;;3.88;48.28;100892.38;4924513;28;97837;-77
2022/03/29 06:14:06;;;;;;;1999.90;999.90;;;;;;;3.88;48.40;100900.28;4919362;28;97652;-75
2022/03/29 06:16:34;;;;;;;1999.90;999.90;;;;;;;3.91;47.93;100904.81;4918548;28;97880;-75
2022/03/29 06:19:02;;;;;;;1999.90;999.90;;;;;;;3.91;48.14;100905.72;4917689;28;97681;-74
2022/03/29 06:21:30;;;;;;;1999.90;999.90;;;;;;;3.90;47.65;100905.63;4917079;28;100807;-75
2022/03/29 06:23:58;;;;;;;1999.90;999.90;;;;;;;3.83;47.47;100907.06;4920231;28;97223;-76
2022/03/29 06:26:25;;;;;;;1999.90;999.90;;;;;;;3.82;47.75;100905.25;4920577;28;97782;-75
2022/03/29 06:28:54;;;;;;;1999.90;999.90;;;;;;;3.85;47.63;100908.03;4919327;28;99126;-74
2022/03/29 06:31:22;;;;;;;1999.90;999.90;;;;;;;3.84;47.67;100911.47;4923853;28;98438;-75
2022/03/29 06:33:50;;;;;;;1999.90;999.90;;;;;;;3.79;47.55;100902.44;4923331;28;96938;-74
2022/03/29 06:36:18;;;;;;;1999.90;999.90;;;;;;;3.80;47.47;100903.38;4923529;28;97574;-75
2022/03/29 06:38:46;;;;;;;1999.90;999.90;;;;;;;3.76;47.58;100906.66;4919330;28;99166;-77
2022/03/29 06:41:14;;;;;;;1999.90;999.90;;;;;;;3.76;47.36;100907.56;4920304;28;99531;-76
2022/03/29 06:43:43;;;;;;;1999.90;999.90;;;;;;;3.82;47.21;100904.34;4921065;28;97685;-75
2022/03/29 06:46:12;;;;;;;1999.90;999.90;;;;;;;3.87;47.33;100894.94;4920351;28;99049;-76
2022/03/29 06:48:41;;;;;;;1999.90;999.90;;;;;;;3.89;47.10;100906.47;4917930;28;97636;-76
2022/03/29 06:51:10;;;;;;;1999.90;999.90;;;;;;;3.86;47.08;100899.28;4916749;28;97912;-76
2022/03/29 06:53:38;;;;;;;1999.90;999.90;;;;;;;3.84;46.71;100902.69;4918127;28;97456;-77
2022/03/29 06:56:07;;;;;;;1999.90;999.90;;;;;;;3.81;46.82;100897.25;4922111;28;97311;-75
2022/03/29 06:58:34;;;;;;;1999.90;999.90;;;;;;;3.84;47.26;100908.84;4922668;28;98101;-76
2022/03/29 07:01:04;;;;;;;1999.90;999.90;;;;;;;3.86;46.84;100901.06;4917438;28;100353;-77
2022/03/29 07:03:34;;;;;;;1999.90;999.90;;;;;;;3.89;47.00;100906.47;4933254;28;97838;-78
2022/03/29 07:06:03;;;;;;;1999.90;999.90;;;;;;;3.90;46.84;100913.50;4915813;28;97619;-75
2022/03/29 07:08:32;;;;;;;1999.90;999.90;;;;;;;3.88;46.79;100904.63;4918110;28;98614;-74
2022/03/29 07:11:19;;;;;;;1999.90;999.90;;;;;;;3.85;47.09;100902.78;4914910;28;98224;-74
2022/03/29 07:13:47;;;;;;;1999.90;999.90;;;;;;;3.83;46.97;100907.06;4916632;28;97872;-74
2022/03/29 07:16:17;;;;;;;1999.90;999.90;;;;;;;3.82;46.71;100909.63;4915397;28;97325;-76
2022/03/29 07:18:49;;;;;;;1999.90;999.90;;;;;;;3.73;47.10;100904.78;4919254;28;100872;-76
2022/03/29 07:21:16;;;;;;;1999.90;999.90;;;;;;;3.74;47.12;100895.16;4900730;28;100813;-75
2022/03/29 07:23:46;;;;;;;1999.90;999.90;;;;;;;3.77;47.14;100896.22;4918803;28;98255;-74
2022/03/29 07:26:14;;;;;;;1999.90;999.90;;;;;;;3.87;46.84;100893.22;4918047;28;97648;-75
2022/03/29 07:28:41;;;;;;;1999.90;999.90;;;;;;;3.94;46.61;100892.69;4916482;28;98165;-75
2022/03/29 07:31:09;;;;;;;1999.90;999.90;;;;;;;3.97;46.67;100889.31;4919239;28;98672;-77
2022/03/29 07:33:37;;;;;;;1999.90;999.90;;;;;;;3.92;47.18;100902.25;4933029;28;96971;-77
2022/03/29 07:36:06;;;;;;;1999.90;999.90;;;;;;;3.83;46.85;100888.63;4916843;28;97501;-76
2022/03/29 07:38:34;;;;;;;1999.90;999.90;;;;;;;3.78;47.33;100887.50;4918984;28;98012;-74
2022/03/29 07:41:02;;;;;;;1999.90;999.90;;;;;;;3.81;47.47;100892.91;4919488;28;98087;-75
2022/03/29 07:43:31;;;;;;;1999.90;999.90;;;;;;;3.82;47.07;100892.09;4915703;28;97032;-76
2022/03/29 07:45:59;;;;;;;1999.90;999.90;;;;;;;3.84;47.59;100886.91;4917033;28;97951;-76
2022/03/29 07:48:26;;;;;;;1999.90;999.90;;;;;;;3.89;47.49;100899.47;4917168;28;99041;-75
2022/03/29 07:51:16;;;;;;;1999.90;999.90;;;;;;;3.92;47.57;100896.97;4920191;28;98143;-76
2022/03/29 07:53:44;;;;;;;1999.90;999.90;;;;;;;3.92;47.05;100902.25;4920187;28;97981;-76
2022/03/29 07:56:11;;;;;;;1999.90;999.90;;;;;;;3.96;47.36;100898.03;4916613;28;97599;-75
2022/03/29 07:58:39;;;;;;;1999.90;999.90;;;;;;;3.97;47.43;100894.59;4920833;28;99096;-74
2022/03/29 08:01:07;;;;;;;1999.90;999.90;;;;;;;3.94;47.17;100900.59;4900465;28;100674;-75
2022/03/29 08:03:35;;;;;;;1999.90;999.90;;;;;;;3.94;47.39;100894.41;4919229;28;97820;-75
2022/03/29 08:06:04;;;;;;;1999.90;999.90;;;;;;;3.92;47.33;100894.34;4920841;28;96781;-76
2022/03/29 08:08:34;;;;;;;1999.90;999.90;;;;;;;3.93;47.48;100905.78;4919649;28;98804;-76
2022/03/29 08:11:03;;;;;;;1999.90;999.90;;;;;;;3.95;47.13;100904.13;4916543;28;97889;-75
2022/03/29 08:13:31;;;;;;;1999.90;999.90;;;;;;;3.97;47.23;100903.38;4918094;28;98646;-77
2022/03/29 08:16:01;;;;;;;1999.90;999.90;;;;;;;3.98;47.23;100897.28;4919485;28;98075;-75
2022/03/29 08:18:31;;;;;;;1999.90;999.90;;;;;;;3.99;47.30;100895.53;4918794;28;98195;-76
2022/03/29 08:20:59;;;;;;;1999.90;999.90;;;;;;;4.00;47.32;100882.47;4916461;28;97616;-76
2022/03/29 08:23:26;;;;;;;1999.90;999.90;;;;;;;3.99;47.08;100891.19;4915423;28;97928;-77
2022/03/29 08:25:56;;;;;;;1999.90;999.90;;;;;;;4.00;47.23;100884.19;4916542;28;97986;-75
2022/03/29 08:28:23;;;;;;;1999.90;999.90;;;;;;;4.03;47.48;100892.22;4917128;28;99284;-76
2022/03/29 08:30:51;;;;;;;1999.90;999.90;;;;;;;4.02;47.41;100886.06;4915217;28;99500;-76
2022/03/29 08:33:20;;;;;;;1999.90;999.90;;;;;;;4.08;47.30;100888.09;4914290;28;98806;-77
2022/03/29 08:35:49;;;;;;;1999.90;999.90;;;;;;;4.08;47.30;100886.38;4918719;28;97895;-74
2022/03/29 08:38:16;;;;;;;1999.90;999.90;;;;;;;4.06;47.14;100880.13;4913812;28;97986;-76
2022/03/29 08:40:57;;;;;;;1999.90;999.90;;;;;;;4.05;47.01;100873.06;4913189;28;101373;-75
2022/03/29 08:43:27;;;;;;;1999.90;999.90;;;;;;;4.08;47.14;100873.19;4913211;28;97216;-76
2022/03/29 08:45:56;;;;;;;1999.90;999.90;;;;;;;4.14;46.96;100872.59;4913518;28;98406;-76
2022/03/29 08:48:25;;;;;;;1999.90;999.90;;;;;;;4.15;47.07;100862.13;4914807;28;98030;-77
2022/03/29 08:50:54;;;;;;;1999.90;999.90;;;;;;;4.16;46.94;100874.47;4910048;28;98029;-76
2022/03/29 08:53:44;;;;;;;1999.90;999.90;;;;;;;4.17;46.85;100863.09;4912077;28;98081;-74
2022/03/29 08:56:13;;;;;;;1999.90;999.90;;;;;;;4.21;46.48;100864.16;4914270;28;97754;-74
2022/03/29 08:58:41;;;;;;;1999.90;999.90;;;;;;;4.26;46.75;100857.41;4913917;28;97114;-75
2022/03/29 09:01:09;;;;;;;1999.90;999.90;;;;;;;4.30;46.61;100858.44;4913684;28;98168;-75
2022/03/29 09:03:37;;;;;;;1999.90;999.90;;;;;;;3.86;47.73;100857.19;4917239;28;97490;-76
2022/03/29 09:06:06;;;;;;;1999.90;999.90;;;;;;;3.63;47.93;100849.84;4916764;28;97781;-77
2022/03/29 09:08:44;;;;;;;1999.90;999.90;;;;;;;3.49;48.61;100850.91;4933750;28;97655;-76
2022/03/29 09:11:13;;;;;;;1999.90;999.90;;;;;;;3.41;48.76;100843.44;4918803;28;97606;-75
2022/03/29 09:13:42;;;;;;;1999.90;999.90;;;;;;;3.47;48.51;100841.13;4914357;28;97111;-75
2022/03/29 09:16:29;;;;;;;1999.90;999.90;;;;;;;3.43;48.25;100845.31;4898323;28;97358;-75
2022/03/29 09:18:57;;;;;;;1999.90;999.90;;;;;;;3.47;48.50;100847.28;4915732;28;98054;-77
2022/03/29 09:21:25;;;;;;;1999.90;999.90;;;;;;;3.39;48.47;100847.72;4920777;28;97843;-77
2022/03/29 09:24:07;;;;;;;1999.90;999.90;;;;;;;3.43;48.09;100847.03;4922901;28;97548;-75
2022/03/29 09:26:38;;;;;;;1999.90;999.90;;;;;;;3.29;48.72;100846.38;4923041;28;97326;-76
2022/03/29 09:29:14;;;;;;;1999.90;999.90;;;;;;;3.35;48.18;100844.03;4919606;28;98849;-74
2022/03/29 09:31:42;;;;;;;1999.90;999.90;;;;;;;3.70;47.87;100843.19;4919557;28;98100;-76
2022/03/29 09:34:12;;;;;;;1999.90;999.90;;;;;;;3.89;47.54;100840.66;4914330;28;96957;-75
2022/03/29 09:36:44;;;;;;;1999.90;999.90;;;;;;;3.68;48.08;100827.34;4922111;28;97722;-75
2022/03/29 09:39:33;;;;;;;1999.90;999.90;;;;;;;3.57;48.32;100833.75;4921558;28;98983;-76
2022/03/29 09:42:04;;;;;;;1999.90;999.90;;;;;;;3.58;47.89;100827.69;4932201;28;97638;-76
2022/03/29 09:44:39;;;;;;;1999.90;999.90;;;;;;;3.57;48.33;100828.50;4930280;28;97292;-77
2022/03/29 09:47:09;;;;;;;1999.90;999.90;;;;;;;3.57;48.29;100825.88;4934756;28;96848;-75
2022/03/29 09:49:57;;;;;;;1999.90;999.90;;;;;;;3.78;47.19;100821.72;4929099;28;99656;-76
2022/03/29 09:52:26;;;;;;;1999.90;999.90;;;;;;;3.72;47.65;100815.22;4930489;28;97859;-74
2022/03/29 09:55:06;;;;;;;1999.90;999.90;;;;;;;3.64;48.29;100825.34;4922635;28;97276;-75
2022/03/29 09:57:36;;;;;;;1999.90;999.90;;;;;;;3.64;47.92;100821.81;4921332;28;97070;-76
2022/03/29 10:00:07;;;;;;;1999.90;999.90;;;;;;;3.65;48.11;100816.66;4923464;28;99487;-76
2022/03/29 10:02:42;;;;;;;1999.90;999.90;;;;;;;3.63;47.90;100814.75;4917618;28;99233;-76
2022/03/29 10:05:11;;;;;;;1999.90;999.90;;;;;;;3.66;47.95;100812.31;4916800;28;97592;-76
2022/03/29 10:07:43;;;;;;;1999.90;999.90;;;;;;;3.64;48.27;100814.81;4920371;28;97212;-75
2022/03/29 10:10:12;;;;;;;1999.90;999.90;;;;;;;3.64;47.86;100812.19;4918185;28;99585;-75
2022/03/29 10:12:41;;;;;;;1999.90;999.90;;;;;;;3.66;48.04;100828.97;4917826;28;99664;-76
2022/03/29 10:15:29;;;;;;;1999.90;999.90;;;;;;;3.68;47.77;100821.16;4919890;28;98083;-76
2022/03/29 10:17:57;;;;;;;1999.90;999.90;;;;;;;3.72;47.64;100812.59;4923625;28;97485;-75
2022/03/29 10:20:25;;;;;;;1999.90;999.90;;;;;;;3.75;47.76;100815.41;4919012;28;98671;-75
2022/03/29 10:22:53;;;;;;;1999.90;999.90;;;;;;;3.77;47.93;100808.47;4917515;28;98804;-74
2022/03/29 10:25:21;;;;;;;1999.90;999.90;;;;;;;3.79;47.79;100807.72;4917738;28;97973;-75
2022/03/29 10:27:50;;;;;;;1999.90;999.90;;;;;;;4.09;47.28;100811.81;4918438;28;96889;-77
2022/03/29 10:30:31;;;;;;;1999.90;999.90;;;;;;;3.96;47.52;100806.81;4919283;28;97849;-75
2022/03/29 10:33:17;;;;;;;1999.90;999.90;;;;;;;3.95;47.49;100806.75;4917419;28;98845;-77
2022/03/29 10:36:01;;;;;;;1999.90;999.90;;;;;;;3.98;47.17;100797.25;4918224;28;97626;-76
2022/03/29 10:38:57;;;;;;;1999.90;999.90;;;;;;;4.06;47.19;100794.97;4920766;28;97309;-75
2022/03/29 10:41:49;;;;;;;1999.90;999.90;;;;;;;4.30;46.70;100789.97;4918137;28;100748;-76
2022/03/29 10:44:19;;;;;;;1999.90;999.90;;;;;;;4.48;46.15;100783.78;4918139;28;98018;-74
2022/03/29 10:46:48;;;;;;;1999.90;999.90;;;;;;;4.61;45.74;100778.22;4919763;28;97207;-76
2022/03/29 10:49:17;;;;;;;1999.90;999.90;;;;;;;4.41;46.51;100773.78;4915761;28;97236;-75
2022/03/29 10:51:45;;;;;;;1999.90;999.90;;;;;;;4.36;46.75;100782.31;4919401;28;97675;-74
2022/03/29 10:54:30;;;;;;;1999.90;999.90;;;;;;;4.24;46.91;100770.38;4919462;28;98078;-74
2022/03/29 10:56:59;;;;;;;1999.90;999.90;;;;;;;4.27;46.59;100768.72;4920509;28;96972;-75
2022/03/29 10:59:29;;;;;;;1999.90;999.90;;;;;;;4.26;46.84;100774.84;4918200;28;97321;-76
2022/03/29 11:02:12;;;;;;;1999.90;999.90;;;;;;;4.25;46.77;100763.41;4915421;28;99140;-75
2022/03/29 11:05:03;;;;;;;1999.90;999.90;;;;;;;4.20;46.71;100757.94;4925789;28;97707;-75
2022/03/29 11:07:31;;;;;;;1999.90;999.90;;;;;;;4.38;46.56;100751.69;4918112;28;97311;-75
2022/03/29 11:10:19;;;;;;;1999.90;999.90;;;;;;;4.36;46.31;100748.06;4917341;28;97047;-75
2022/03/29 11:12:49;;;;;;;1999.90;999.90;;;;;;;4.20;46.88;100747.41;4918951;28;97188;-76